Time;durP1;ratioP1;P1;durP2;ratioP2;P2;SDS_P1;SDS_P2;PMS_P1;PMS_P2;Temp;Humidity;BMP_temperature;BMP_pressure;BME280_temperature;BME280_humidity;BME280_pressure;Samples;Min_cycle;Max_cycle;Signal;HPM_P1;HPM_P2
2022/12/27 00:01:41;;;;;;;1.80;1.70;;;;;;;;;;5097138;28;20246;-59
2022/12/27 00:04:09;;;;;;;1.83;1.70;;;;;;;;;;5096758;28;20294;-59
2022/12/27 00:06:37;;;;;;;2.10;1.60;;;;;;;;;;5096876;28;20204;-59
2022/12/27 00:09:05;;;;;;;1.83;1.40;;;;;;;;;;5096546;28;20207;-59
2022/12/27 00:11:33;;;;;;;1.65;1.50;;;;;;;;;;5097023;28;20204;-59
2022/12/27 00:14:01;;;;;;;2.25;1.55;;;;;;;;;;5096609;28;20771;-59
2022/12/27 00:16:29;;;;;;;1.40;1.30;;;;;;;;;;5096699;28;20222;-59
2022/12/27 00:18:59;;;;;;;1.25;1.15;;;;;;;;;;5097111;28;20207;-59
2022/12/27 00:21:27;;;;;;;1.42;1.20;;;;;;;;;;5096414;28;20211;-59
2022/12/27 00:23:55;;;;;;;1.95;1.50;;;;;;;;;;5096598;28;20200;-59
2022/12/27 00:26:25;;;;;;;2.78;1.42;;;;;;;;;;5097184;28;20210;-59
2022/12/27 00:28:53;;;;;;;2.58;1.35;;;;;;;;;;5096796;28;20251;-59
2022/12/27 00:31:22;;;;;;;1.60;1.10;;;;;;;;;;5096602;28;20610;-59
2022/12/27 00:33:50;;;;;;;1.52;1.25;;;;;;;;;;5093270;28;20230;-59
2022/12/27 00:36:20;;;;;;;1.50;1.33;;;;;;;;;;5096615;28;20204;-59
2022/12/27 00:38:48;;;;;;;1.60;1.27;;;;;;;;;;5096527;28;20290;-59
2022/12/27 00:41:16;;;;;;;1.65;1.38;;;;;;;;;;5097099;28;20203;-59
2022/12/27 00:43:44;;;;;;;1.65;1.40;;;;;;;;;;5100051;28;20254;-59
2022/12/27 00:46:12;;;;;;;1.17;1.08;;;;;;;;;;5100438;28;20302;-59
2022/12/27 00:48:40;;;;;;;1.30;1.20;;;;;;;;;;5099647;28;20286;-59
2022/12/27 00:51:09;;;;;;;1.20;1.02;;;;;;;;;;5099897;28;20200;-59
2022/12/27 00:53:38;;;;;;;1.13;0.98;;;;;;;;;;5099959;28;20614;-58
2022/12/27 00:56:07;;;;;;;1.48;1.20;;;;;;;;;;5100148;28;20204;-60
2022/12/27 00:58:35;;;;;;;2.50;1.20;;;;;;;;;;5099987;28;20211;-59
2022/12/27 01:01:07;;;;;;;2.17;1.30;;;;;;;;;;5100224;28;20203;-59
2022/12/27 01:03:34;;;;;;;2.50;1.00;;;;;;;;;;5100275;28;20204;-58
2022/12/27 01:06:04;;;;;;;2.03;1.30;;;;;;;;;;5098183;28;20212;-58
2022/12/27 01:08:32;;;;;;;3.38;1.05;;;;;;;;;;5098973;28;20215;-59
2022/12/27 01:11:02;;;;;;;1.40;1.25;;;;;;;;;;5099864;28;20568;-58
2022/12/27 01:13:29;;;;;;;1.35;1.25;;;;;;;;;;5099855;28;20227;-58
2022/12/27 01:15:57;;;;;;;3.03;1.20;;;;;;;;;;5099630;28;20207;-59
2022/12/27 01:18:25;;;;;;;2.00;0.98;;;;;;;;;;5094540;28;20258;-58
2022/12/27 01:20:53;;;;;;;2.70;1.20;;;;;;;;;;5078377;28;20212;-59
2022/12/27 01:23:20;;;;;;;1.40;1.10;;;;;;;;;;5079333;28;20201;-59
2022/12/27 01:25:48;;;;;;;1.85;1.00;;;;;;;;;;5079676;28;20200;-59
2022/12/27 01:28:18;;;;;;;1.77;1.10;;;;;;;;;;5099100;28;20229;-59
2022/12/27 01:30:45;;;;;;;1.63;1.10;;;;;;;;;;5099665;28;20235;-59
2022/12/27 01:33:13;;;;;;;1.42;1.00;;;;;;;;;;5099126;28;20243;-59
2022/12/27 01:35:41;;;;;;;1.75;0.93;;;;;;;;;;5098719;28;20273;-59
2022/12/27 01:38:09;;;;;;;1.60;1.10;;;;;;;;;;5099762;28;20215;-59
2022/12/27 01:40:37;;;;;;;1.40;1.02;;;;;;;;;;5097403;28;20264;-59
2022/12/27 01:43:03;;;;;;;1.05;0.95;;;;;;;;;;5098639;28;20199;-59
2022/12/27 01:45:33;;;;;;;1.08;0.90;;;;;;;;;;5099246;28;20586;-59
2022/12/27 01:48:04;;;;;;;1.55;0.90;;;;;;;;;;5096671;28;20284;-58
2022/12/27 01:50:34;;;;;;;0.98;0.90;;;;;;;;;;5099189;28;20195;-58
2022/12/27 01:53:04;;;;;;;1.50;0.95;;;;;;;;;;5098498;28;20599;-58
2022/12/27 01:55:37;;;;;;;1.20;1.10;;;;;;;;;;5099126;28;20231;-58
2022/12/27 01:58:07;;;;;;;2.35;1.25;;;;;;;;;;5099156;28;20203;-59
2022/12/27 02:00:37;;;;;;;1.75;0.80;;;;;;;;;;5099648;28;20207;-58
2022/12/27 02:03:05;;;;;;;0.85;0.80;;;;;;;;;;5099369;28;20200;-58
2022/12/27 02:05:34;;;;;;;1.25;0.80;;;;;;;;;;5099262;28;20212;-58
2022/12/27 02:08:17;;;;;;;1.00;0.90;;;;;;;;;;5099131;28;20318;-59
2022/12/27 02:10:45;;;;;;;1.20;1.10;;;;;;;;;;5098750;28;20239;-58
2022/12/27 02:13:13;;;;;;;1.40;0.77;;;;;;;;;;5099023;28;20531;-59
2022/12/27 02:15:42;;;;;;;1.23;1.00;;;;;;;;;;5098948;28;20213;-59
2022/12/27 02:18:10;;;;;;;0.90;0.90;;;;;;;;;;5098775;28;20230;-59
2022/12/27 02:20:44;;;;;;;0.80;0.80;;;;;;;;;;5093057;28;20204;-59
2022/12/27 02:26:36;;;;;;;1.00;0.82;;;;;;;;;;5084303;28;20604;-59
2022/12/27 02:29:20;;;;;;;1.00;0.90;;;;;;;;;;5095389;28;20196;-59
2022/12/27 02:31:51;;;;;;;1.02;0.93;;;;;;;;;;5098341;28;20214;-58
2022/12/27 02:34:21;;;;;;;1.10;1.00;;;;;;;;;;5096048;28;20254;-59
2022/12/27 02:36:51;;;;;;;1.15;1.05;;;;;;;;;;5078279;28;20208;-59
2022/12/27 02:39:20;;;;;;;1.00;0.90;;;;;;;;;;5086047;28;20238;-59
2022/12/27 02:53:06;;;;;;;0.85;0.80;;;;;;;;;;5118079;28;20210;-58
2022/12/27 02:58:42;;;;;;;1.10;0.90;;;;;;;;;;5117500;28;20195;-58
2022/12/27 03:04:09;;;;;;;0.90;0.80;;;;;;;;;;5117784;28;20202;-59
2022/12/27 03:06:48;;;;;;;1.05;0.80;;;;;;;;;;5117457;28;20202;-59
2022/12/27 03:18:00;;;;;;;1.02;0.80;;;;;;;;;;5117039;28;20208;-59
2022/12/27 03:26:10;;;;;;;0.75;0.75;;;;;;;;;;5035407;28;20193;-59
2022/12/27 03:34:34;;;;;;;1.73;0.80;;;;;;;;;;5117228;28;20230;-59
2022/12/27 03:39:51;;;;;;;0.70;0.70;;;;;;;;;;5075750;28;20190;-59
2022/12/27 03:45:07;;;;;;;0.70;0.70;;;;;;;;;;5097777;28;20253;-59
2022/12/27 03:47:36;;;;;;;0.93;0.70;;;;;;;;;;5096881;28;20203;-59
2022/12/27 03:50:09;;;;;;;0.95;0.80;;;;;;;;;;5097332;28;20199;-59
2022/12/27 03:52:43;;;;;;;0.60;0.60;;;;;;;;;;5096282;28;20195;-59
2022/12/27 03:55:11;;;;;;;0.60;0.55;;;;;;;;;;5096951;28;20231;-59
2022/12/27 03:57:39;;;;;;;0.70;0.70;;;;;;;;;;5096989;28;20298;-59
2022/12/27 04:00:07;;;;;;;1.00;0.82;;;;;;;;;;5096807;28;20585;-59
2022/12/27 04:02:35;;;;;;;0.60;0.60;;;;;;;;;;5096982;28;20286;-59
2022/12/27 04:05:03;;;;;;;0.60;0.60;;;;;;;;;;5096586;28;20207;-59
2022/12/27 04:07:33;;;;;;;0.73;0.73;;;;;;;;;;5096495;28;20246;-59
2022/12/27 04:34:48;;;;;;;0.77;0.65;;;;;;;;;;5100018;28;20234;-59
2022/12/27 04:37:17;;;;;;;0.63;0.63;;;;;;;;;;5100193;28;20295;-59
2022/12/27 04:54:55;;;;;;;0.80;0.70;;;;;;;;;;5100659;28;20335;-59
2022/12/27 04:56:20;;;;;;;0.90;0.90;;;;;;;;;;5099886;28;20194;-59
2022/12/27 05:04:13;;;;;;;0.80;0.80;;;;;;;;;;5099374;28;20294;-59
2022/12/27 05:06:41;;;;;;;0.77;0.77;;;;;;;;;;5099445;28;20203;-59
2022/12/27 05:14:39;;;;;;;0.80;0.80;;;;;;;;;;5099289;28;20230;-58
2022/12/27 05:17:07;;;;;;;0.77;0.77;;;;;;;;;;5099271;28;20310;-58
2022/12/27 05:19:34;;;;;;;0.75;0.70;;;;;;;;;;5098849;28;20207;-58
2022/12/27 05:27:33;;;;;;;0.90;0.70;;;;;;;;;;5097841;28;20191;-58
2022/12/27 05:30:00;;;;;;;0.60;0.60;;;;;;;;;;5098568;28;20203;-58
2022/12/27 05:32:27;;;;;;;0.75;0.60;;;;;;;;;;5099189;28;20302;-58
2022/12/27 05:34:55;;;;;;;0.73;0.70;;;;;;;;;;5099003;28;20238;-58
2022/12/27 05:37:22;;;;;;;0.70;0.70;;;;;;;;;;5098247;28;20203;-58
2022/12/27 05:39:49;;;;;;;0.85;0.55;;;;;;;;;;5098439;28;20650;-58
2022/12/27 05:42:17;;;;;;;0.60;0.60;;;;;;;;;;5099325;28;20211;-58
2022/12/27 05:44:46;;;;;;;1.05;0.70;;;;;;;;;;5098204;28;20231;-58
2022/12/27 05:47:13;;;;;;;0.68;0.68;;;;;;;;;;5098631;28;20204;-58
2022/12/27 05:49:41;;;;;;;0.68;0.65;;;;;;;;;;5098051;28;20591;-59
2022/12/27 05:52:08;;;;;;;0.68;0.50;;;;;;;;;;5098895;28;20287;-59
2022/12/27 05:54:36;;;;;;;0.77;0.77;;;;;;;;;;5098355;28;20318;-59
2022/12/27 05:57:03;;;;;;;0.60;0.50;;;;;;;;;;5097912;28;20305;-59
2022/12/27 05:59:31;;;;;;;0.80;0.60;;;;;;;;;;5098018;28;20204;-59
2022/12/27 06:01:59;;;;;;;0.70;0.70;;;;;;;;;;5089522;28;20283;-59
2022/12/27 06:04:27;;;;;;;0.88;0.65;;;;;;;;;;5080912;28;20251;-59
2022/12/27 06:06:54;;;;;;;0.80;0.77;;;;;;;;;;5078236;28;20563;-59
2022/12/27 06:09:22;;;;;;;0.80;0.70;;;;;;;;;;5083230;28;20207;-58
2022/12/27 06:11:49;;;;;;;0.70;0.65;;;;;;;;;;5083564;28;20572;-58
2022/12/27 06:14:17;;;;;;;0.65;0.52;;;;;;;;;;5078579;28;20322;-58
2022/12/27 06:16:44;;;;;;;0.70;0.70;;;;;;;;;;5087934;28;20208;-58
2022/12/27 06:19:13;;;;;;;1.20;0.80;;;;;;;;;;5097998;28;20514;-58
2022/12/27 06:21:41;;;;;;;0.63;0.63;;;;;;;;;;5078049;28;20295;-58
2022/12/27 06:24:08;;;;;;;0.82;0.82;;;;;;;;;;5077565;28;20540;-58
2022/12/27 06:26:35;;;;;;;0.80;0.80;;;;;;;;;;5078323;28;20204;-58
2022/12/27 06:29:03;;;;;;;0.77;0.75;;;;;;;;;;5077845;28;20204;-58
2022/12/27 06:31:30;;;;;;;1.27;0.90;;;;;;;;;;5077950;28;20208;-59
2022/12/27 06:33:58;;;;;;;0.82;0.70;;;;;;;;;;5077556;28;20224;-59
2022/12/27 06:36:29;;;;;;;0.77;0.75;;;;;;;;;;5077508;28;20369;-59
2022/12/27 06:38:56;;;;;;;1.13;0.70;;;;;;;;;;5077433;28;20239;-59
2022/12/27 06:41:24;;;;;;;0.77;0.70;;;;;;;;;;5077351;28;20215;-59
2022/12/27 06:43:54;;;;;;;0.73;0.73;;;;;;;;;;5076979;28;20315;-59
2022/12/27 06:46:23;;;;;;;1.38;0.90;;;;;;;;;;5077101;28;20204;-59
2022/12/27 06:48:50;;;;;;;1.15;0.93;;;;;;;;;;5077185;28;20505;-59
2022/12/27 06:51:20;;;;;;;0.80;0.80;;;;;;;;;;5076938;28;20310;-59
2022/12/27 06:53:49;;;;;;;0.70;0.70;;;;;;;;;;5077428;28;20205;-59
2022/12/27 06:56:17;;;;;;;1.20;0.73;;;;;;;;;;5076947;28;20298;-58
2022/12/27 06:58:45;;;;;;;0.65;0.60;;;;;;;;;;5077005;28;20212;-58
2022/12/27 07:01:13;;;;;;;0.75;0.60;;;;;;;;;;5077052;28;20311;-58
2022/12/27 07:03:40;;;;;;;0.68;0.68;;;;;;;;;;5077137;28;20287;-59
2022/12/27 07:06:10;;;;;;;0.70;0.70;;;;;;;;;;5076769;28;20299;-59
2022/12/27 07:08:37;;;;;;;0.93;0.60;;;;;;;;;;5076985;28;20259;-59
2022/12/27 07:11:07;;;;;;;0.85;0.70;;;;;;;;;;5076971;28;20295;-59
2022/12/27 07:13:35;;;;;;;0.80;0.60;;;;;;;;;;5077109;28;20576;-59
2022/12/27 07:16:04;;;;;;;0.70;0.70;;;;;;;;;;5084701;28;20220;-59
2022/12/27 07:18:32;;;;;;;1.00;0.65;;;;;;;;;;5096455;28;20215;-58
2022/12/27 07:20:59;;;;;;;1.25;0.90;;;;;;;;;;5079460;28;20208;-58
2022/12/27 07:23:27;;;;;;;0.70;0.70;;;;;;;;;;5085700;28;20298;-58
2022/12/27 07:25:54;;;;;;;1.10;0.70;;;;;;;;;;5077170;28;20299;-59
2022/12/27 07:28:23;;;;;;;0.70;0.70;;;;;;;;;;5077035;28;20215;-59
2022/12/27 07:30:50;;;;;;;1.05;0.70;;;;;;;;;;5076483;28;20266;-59
2022/12/27 07:33:17;;;;;;;0.65;0.65;;;;;;;;;;5075947;28;20864;-59
2022/12/27 07:35:45;;;;;;;1.23;0.70;;;;;;;;;;5076447;28;20227;-59
2022/12/27 07:38:12;;;;;;;0.93;0.88;;;;;;;;;;5076688;28;20205;-59
2022/12/27 07:40:40;;;;;;;0.68;0.68;;;;;;;;;;5076313;28;20204;-59
2022/12/27 07:43:07;;;;;;;0.95;0.80;;;;;;;;;;5076653;28;20204;-59
2022/12/27 07:45:36;;;;;;;0.65;0.60;;;;;;;;;;5076098;28;20551;-59
2022/12/27 07:48:03;;;;;;;0.93;0.77;;;;;;;;;;5076183;28;20204;-59
2022/12/27 07:50:30;;;;;;;0.95;0.55;;;;;;;;;;5076411;28;20204;-59
2022/12/27 07:52:58;;;;;;;0.80;0.50;;;;;;;;;;5079627;28;20299;-59
2022/12/27 07:55:25;;;;;;;1.00;0.80;;;;;;;;;;5080045;28;20314;-59
2022/12/27 07:57:53;;;;;;;0.90;0.80;;;;;;;;;;5080099;28;20204;-59
2022/12/27 08:00:20;;;;;;;0.90;0.70;;;;;;;;;;5079866;28;20204;-59
2022/12/27 08:02:49;;;;;;;1.58;0.82;;;;;;;;;;5079393;28;20291;-59
2022/12/27 08:05:16;;;;;;;0.70;0.60;;;;;;;;;;5079605;28;20203;-59
2022/12/27 08:07:44;;;;;;;1.00;0.68;;;;;;;;;;5079474;28;20290;-59
2022/12/27 08:10:11;;;;;;;0.65;0.65;;;;;;;;;;5079595;28;20204;-59
2022/12/27 08:12:39;;;;;;;0.60;0.60;;;;;;;;;;5079678;28;20199;-59
2022/12/27 08:15:07;;;;;;;0.82;0.65;;;;;;;;;;5079259;28;20284;-58
2022/12/27 08:17:34;;;;;;;0.70;0.60;;;;;;;;;;5079656;28;20651;-58
2022/12/27 08:20:03;;;;;;;0.73;0.60;;;;;;;;;;5079856;28;20205;-58
2022/12/27 08:22:30;;;;;;;0.50;0.50;;;;;;;;;;5079682;28;20597;-58
2022/12/27 08:24:58;;;;;;;0.60;0.60;;;;;;;;;;5078787;28;20200;-58
2022/12/27 08:27:25;;;;;;;0.70;0.68;;;;;;;;;;5079292;28;20706;-59
2022/12/27 08:29:53;;;;;;;0.80;0.68;;;;;;;;;;5079651;28;20679;-59
2022/12/27 08:32:20;;;;;;;0.60;0.52;;;;;;;;;;5078270;28;20599;-59
2022/12/27 08:34:48;;;;;;;0.80;0.70;;;;;;;;;;5078615;28;20228;-59
2022/12/27 08:37:16;;;;;;;0.88;0.60;;;;;;;;;;5078653;28;20287;-59
2022/12/27 08:39:44;;;;;;;0.60;0.50;;;;;;;;;;5078765;28;20211;-59
2022/12/27 08:42:12;;;;;;;0.50;0.50;;;;;;;;;;5078486;28;20212;-59
2022/12/27 08:44:40;;;;;;;0.93;0.60;;;;;;;;;;5079007;28;20491;-59
2022/12/27 08:47:07;;;;;;;0.88;0.63;;;;;;;;;;5079002;28;20299;-59
2022/12/27 08:49:34;;;;;;;0.85;0.80;;;;;;;;;;5078586;28;20204;-59
2022/12/27 08:52:02;;;;;;;1.10;0.73;;;;;;;;;;5078147;28;20638;-59
2022/12/27 08:54:31;;;;;;;0.93;0.60;;;;;;;;;;5078351;28;20315;-59
2022/12/27 08:56:58;;;;;;;0.65;0.65;;;;;;;;;;5078451;28;20287;-59
2022/12/27 08:59:26;;;;;;;0.50;0.50;;;;;;;;;;5078336;28;20311;-59
2022/12/27 09:01:53;;;;;;;1.00;0.70;;;;;;;;;;5077774;28;20308;-59
2022/12/27 09:04:21;;;;;;;0.50;0.50;;;;;;;;;;5076314;28;20287;-58
2022/12/27 09:06:48;;;;;;;0.82;0.50;;;;;;;;;;5077986;28;20303;-58
2022/12/27 09:09:16;;;;;;;0.95;0.80;;;;;;;;;;5077515;28;20196;-58
2022/12/27 09:11:45;;;;;;;0.77;0.68;;;;;;;;;;5077661;28;20196;-58
2022/12/27 09:14:13;;;;;;;0.95;0.52;;;;;;;;;;5077485;28;20265;-58
2022/12/27 09:16:40;;;;;;;0.73;0.60;;;;;;;;;;5077894;28;20228;-58
2022/12/27 09:19:08;;;;;;;1.10;0.70;;;;;;;;;;5077141;28;20596;-58
2022/12/27 09:21:35;;;;;;;0.82;0.60;;;;;;;;;;5076424;28;20609;-58
2022/12/27 09:24:03;;;;;;;0.90;0.60;;;;;;;;;;5077431;28;20205;-58
2022/12/27 09:26:31;;;;;;;0.60;0.60;;;;;;;;;;5077213;28;20234;-58
2022/12/27 09:29:00;;;;;;;0.70;0.50;;;;;;;;;;5077519;28;20304;-58
2022/12/27 09:31:27;;;;;;;0.75;0.60;;;;;;;;;;5077659;28;20595;-58
2022/12/27 09:33:55;;;;;;;0.73;0.57;;;;;;;;;;5075904;28;20230;-58
2022/12/27 09:36:24;;;;;;;0.90;0.70;;;;;;;;;;5075906;28;20239;-58
2022/12/27 09:38:53;;;;;;;0.68;0.50;;;;;;;;;;5076373;28;20562;-58
2022/12/27 09:41:22;;;;;;;0.60;0.50;;;;;;;;;;5076245;28;20208;-59
2022/12/27 09:43:57;;;;;;;0.60;0.60;;;;;;;;;;5075727;28;20236;-59
2022/12/27 09:46:27;;;;;;;0.80;0.60;;;;;;;;;;5075616;28;20321;-59
2022/12/27 09:48:56;;;;;;;0.52;0.52;;;;;;;;;;5074789;28;20341;-59
2022/12/27 09:51:25;;;;;;;0.70;0.70;;;;;;;;;;5075306;28;20299;-59
2022/12/27 09:53:58;;;;;;;0.70;0.70;;;;;;;;;;5076202;28;20200;-59
2022/12/27 09:56:26;;;;;;;0.75;0.65;;;;;;;;;;5075026;28;20239;-58
2022/12/27 09:58:56;;;;;;;0.70;0.70;;;;;;;;;;5075451;28;20686;-59
2022/12/27 10:01:26;;;;;;;0.75;0.68;;;;;;;;;;5074840;28;20204;-59
2022/12/27 10:03:55;;;;;;;0.60;0.52;;;;;;;;;;5074127;28;20666;-59
2022/12/27 10:06:37;;;;;;;0.80;0.55;;;;;;;;;;5074775;28;20303;-59
2022/12/27 10:09:10;;;;;;;0.80;0.70;;;;;;;;;;5073904;28;20310;-59
2022/12/27 10:11:44;;;;;;;0.63;0.50;;;;;;;;;;5074060;28;20503;-59
2022/12/27 10:14:24;;;;;;;0.75;0.60;;;;;;;;;;5072522;28;20476;-59
2022/12/27 10:16:55;;;;;;;0.90;0.60;;;;;;;;;;5073759;28;20224;-59
2022/12/27 10:19:29;;;;;;;0.57;0.57;;;;;;;;;;5074521;28;20488;-59
2022/12/27 10:22:03;;;;;;;0.70;0.70;;;;;;;;;;5073786;28;20214;-59
2022/12/27 10:24:35;;;;;;;0.60;0.60;;;;;;;;;;5073759;28;20485;-59
2022/12/27 10:27:03;;;;;;;0.70;0.60;;;;;;;;;;5072668;28;20207;-59
2022/12/27 10:29:33;;;;;;;0.60;0.50;;;;;;;;;;5074576;28;20289;-59
2022/12/27 10:32:00;;;;;;;1.05;0.70;;;;;;;;;;5073950;28;20504;-59
2022/12/27 10:34:29;;;;;;;0.98;0.80;;;;;;;;;;5074643;28;20205;-59
2022/12/27 10:36:57;;;;;;;1.10;0.70;;;;;;;;;;5073985;28;20228;-59
2022/12/27 10:39:27;;;;;;;0.50;0.40;;;;;;;;;;5074907;28;20212;-59
2022/12/27 10:41:58;;;;;;;0.70;0.70;;;;;;;;;;5076322;28;20287;-59
2022/12/27 10:44:26;;;;;;;0.80;0.70;;;;;;;;;;5080723;28;20538;-59
2022/12/27 10:46:54;;;;;;;0.70;0.60;;;;;;;;;;5095456;28;20616;-59
2022/12/27 10:49:23;;;;;;;1.02;0.70;;;;;;;;;;5096095;28;20200;-59
2022/12/27 10:51:54;;;;;;;0.77;0.73;;;;;;;;;;5096198;28;20210;-59
2022/12/27 10:54:24;;;;;;;1.02;0.50;;;;;;;;;;5095189;28;20299;-58
2022/12/27 10:56:52;;;;;;;1.02;0.75;;;;;;;;;;5095244;28;20228;-58
2022/12/27 10:59:20;;;;;;;0.88;0.60;;;;;;;;;;5093716;28;20204;-58
2022/12/27 11:01:48;;;;;;;1.42;0.70;;;;;;;;;;5093805;28;20214;-58
2022/12/27 11:04:17;;;;;;;2.28;0.63;;;;;;;;;;5093459;28;20299;-58
2022/12/27 11:06:45;;;;;;;0.80;0.57;;;;;;;;;;5092738;28;20583;-58
2022/12/27 11:09:27;;;;;;;1.00;0.68;;;;;;;;;;5093477;28;20200;-58
2022/12/27 11:12:11;;;;;;;0.77;0.60;;;;;;;;;;5093137;28;20195;-58
2022/12/27 11:14:39;;;;;;;0.43;0.40;;;;;;;;;;5092903;28;20211;-58
2022/12/27 11:17:08;;;;;;;0.60;0.60;;;;;;;;;;5093179;28;20221;-59
2022/12/27 11:19:37;;;;;;;0.52;0.52;;;;;;;;;;5095860;28;20298;-58
2022/12/27 11:22:06;;;;;;;1.38;0.70;;;;;;;;;;5095587;28;20203;-58
2022/12/27 11:24:35;;;;;;;0.65;0.65;;;;;;;;;;5093990;28;20203;-58
2022/12/27 11:27:03;;;;;;;1.80;0.70;;;;;;;;;;5093161;28;20210;-58
2022/12/27 11:29:32;;;;;;;1.20;0.70;;;;;;;;;;5093978;28;20207;-59
2022/12/27 11:32:05;;;;;;;1.23;0.80;;;;;;;;;;5093710;28;20272;-59
2022/12/27 11:34:34;;;;;;;0.90;0.60;;;;;;;;;;5093821;28;20287;-59
2022/12/27 11:37:04;;;;;;;0.70;0.68;;;;;;;;;;5092769;28;20219;-58
2022/12/27 11:39:41;;;;;;;1.42;0.80;;;;;;;;;;5092760;28;20301;-58
2022/12/27 11:42:12;;;;;;;0.82;0.50;;;;;;;;;;5091005;28;20203;-59
2022/12/27 11:44:41;;;;;;;0.82;0.60;;;;;;;;;;5091948;28;20314;-59
2022/12/27 11:47:12;;;;;;;1.73;0.52;;;;;;;;;;5093160;28;20195;-59
2022/12/27 11:49:43;;;;;;;1.00;0.70;;;;;;;;;;5093288;28;20203;-59
2022/12/27 11:52:33;;;;;;;0.90;0.60;;;;;;;;;;5090070;28;20353;-59
2022/12/27 11:55:19;;;;;;;0.90;0.70;;;;;;;;;;5092085;28;20195;-59
2022/12/27 11:57:59;;;;;;;1.58;0.65;;;;;;;;;;5092025;28;20225;-59
2022/12/27 12:00:30;;;;;;;0.60;0.60;;;;;;;;;;5092652;28;20239;-59
2022/12/27 12:03:20;;;;;;;1.40;0.65;;;;;;;;;;5091676;28;20204;-59
2022/12/27 12:05:54;;;;;;;0.95;0.65;;;;;;;;;;5091024;28;20420;-59
2022/12/27 12:08:40;;;;;;;0.60;0.60;;;;;;;;;;5092445;28;20294;-59
2022/12/27 12:11:20;;;;;;;1.67;0.70;;;;;;;;;;5092634;28;20203;-58
2022/12/27 12:13:56;;;;;;;0.75;0.50;;;;;;;;;;5092504;28;20203;-58
2022/12/27 12:16:35;;;;;;;1.10;0.75;;;;;;;;;;5092514;28;20775;-59
2022/12/27 12:19:08;;;;;;;0.85;0.60;;;;;;;;;;5091479;28;20487;-59
2022/12/27 12:21:38;;;;;;;0.77;0.63;;;;;;;;;;5091534;28;20204;-59
2022/12/27 12:24:14;;;;;;;1.45;0.70;;;;;;;;;;5092853;28;20298;-59
2022/12/27 12:26:50;;;;;;;1.02;0.82;;;;;;;;;;5092314;28;20245;-59
2022/12/27 12:29:35;;;;;;;1.92;0.68;;;;;;;;;;5091299;28;20302;-59
2022/12/27 12:32:15;;;;;;;0.70;0.50;;;;;;;;;;5091691;28;20429;-59
2022/12/27 12:34:48;;;;;;;0.98;0.70;;;;;;;;;;5092901;28;20215;-59
2022/12/27 12:37:22;;;;;;;1.27;0.68;;;;;;;;;;5092778;28;20234;-59
2022/12/27 12:40:05;;;;;;;1.73;0.70;;;;;;;;;;5097068;28;20210;-59
2022/12/27 12:42:37;;;;;;;0.75;0.70;;;;;;;;;;5093719;28;20207;-58
2022/12/27 12:45:22;;;;;;;0.60;0.60;;;;;;;;;;5094420;28;20318;-58
2022/12/27 12:48:07;;;;;;;0.50;0.50;;;;;;;;;;5093822;28;20601;-58
2022/12/27 12:50:46;;;;;;;0.55;0.50;;;;;;;;;;5078590;28;20203;-58
2022/12/27 12:53:22;;;;;;;1.20;0.60;;;;;;;;;;5096311;28;20209;-59
2022/12/27 12:55:54;;;;;;;1.50;0.77;;;;;;;;;;5095405;28;20475;-59
2022/12/27 12:58:30;;;;;;;0.40;0.40;;;;;;;;;;5094397;28;20254;-59
2022/12/27 13:01:09;;;;;;;0.90;0.70;;;;;;;;;;5094881;28;20207;-59
2022/12/27 13:03:57;;;;;;;0.60;0.60;;;;;;;;;;5094588;28;20203;-59
2022/12/27 13:06:37;;;;;;;0.70;0.60;;;;;;;;;;5097095;28;20226;-58
2022/12/27 13:09:14;;;;;;;0.77;0.60;;;;;;;;;;5095364;28;20203;-58
2022/12/27 13:11:46;;;;;;;0.65;0.60;;;;;;;;;;5094627;28;20210;-59
2022/12/27 13:14:21;;;;;;;1.08;0.70;;;;;;;;;;5095135;28;20211;-59
2022/12/27 13:16:53;;;;;;;0.60;0.60;;;;;;;;;;5096267;28;20237;-59
2022/12/27 13:19:34;;;;;;;1.02;0.70;;;;;;;;;;5093651;28;20204;-58
2022/12/27 13:22:09;;;;;;;0.73;0.57;;;;;;;;;;5095857;28;20211;-59
2022/12/27 13:24:44;;;;;;;0.98;0.65;;;;;;;;;;5097227;28;20747;-59
2022/12/27 13:27:14;;;;;;;0.85;0.63;;;;;;;;;;5095277;28;20209;-59
2022/12/27 13:29:46;;;;;;;0.95;0.75;;;;;;;;;;5095023;28;20372;-59
2022/12/27 13:32:19;;;;;;;0.70;0.50;;;;;;;;;;5094294;28;20294;-59
2022/12/27 13:34:54;;;;;;;1.33;0.70;;;;;;;;;;5094324;28;20577;-59
2022/12/27 13:37:29;;;;;;;0.82;0.60;;;;;;;;;;5094377;28;20230;-59
2022/12/27 13:40:09;;;;;;;0.70;0.70;;;;;;;;;;5094628;28;20338;-59
2022/12/27 13:42:51;;;;;;;1.30;0.70;;;;;;;;;;5094109;28;20555;-59
2022/12/27 13:45:23;;;;;;;0.70;0.60;;;;;;;;;;5071668;28;20202;-58
2022/12/27 13:47:59;;;;;;;1.05;0.70;;;;;;;;;;5093203;28;20206;-58
2022/12/27 13:50:37;;;;;;;1.33;0.68;;;;;;;;;;5093250;28;20197;-59
2022/12/27 13:53:17;;;;;;;0.68;0.50;;;;;;;;;;5094006;28;20318;-58
2022/12/27 13:55:55;;;;;;;0.77;0.50;;;;;;;;;;5094948;28;20586;-58
2022/12/27 13:58:37;;;;;;;0.68;0.50;;;;;;;;;;5094221;28;20226;-58
2022/12/27 14:01:12;;;;;;;0.63;0.60;;;;;;;;;;5093667;28;20290;-58
2022/12/27 14:04:01;;;;;;;1.38;0.50;;;;;;;;;;5095212;28;20205;-58
2022/12/27 14:06:45;;;;;;;0.70;0.68;;;;;;;;;;5092918;28;20225;-59
2022/12/27 14:09:22;;;;;;;0.70;0.60;;;;;;;;;;5093770;28;20591;-59
2022/12/27 14:11:57;;;;;;;0.50;0.50;;;;;;;;;;5094618;28;20207;-59
2022/12/27 14:14:26;;;;;;;0.73;0.50;;;;;;;;;;5092821;28;20369;-59
2022/12/27 14:17:01;;;;;;;0.95;0.70;;;;;;;;;;5091861;28;20219;-59
2022/12/27 14:19:45;;;;;;;0.73;0.73;;;;;;;;;;5092082;28;20662;-58
2022/12/27 14:22:22;;;;;;;0.93;0.60;;;;;;;;;;5092583;28;20215;-58
2022/12/27 14:25:13;;;;;;;0.65;0.60;;;;;;;;;;5094047;28;20203;-58
2022/12/27 14:28:03;;;;;;;0.50;0.50;;;;;;;;;;5093544;28;20236;-58
2022/12/27 14:30:48;;;;;;;0.82;0.80;;;;;;;;;;5093088;28;20284;-58
2022/12/27 14:33:49;;;;;;;0.60;0.60;;;;;;;;;;5093935;28;20306;-58
2022/12/27 14:36:30;;;;;;;0.70;0.70;;;;;;;;;;5093472;28;20230;-58
2022/12/27 14:39:14;;;;;;;0.80;0.60;;;;;;;;;;5094627;28;20207;-59
2022/12/27 14:42:00;;;;;;;0.70;0.70;;;;;;;;;;5093714;28;20514;-59
2022/12/27 14:44:42;;;;;;;0.90;0.60;;;;;;;;;;5092807;28;20330;-59
2022/12/27 14:47:23;;;;;;;0.70;0.70;;;;;;;;;;5093057;28;20205;-58
2022/12/27 14:50:14;;;;;;;0.85;0.60;;;;;;;;;;5093292;28;20199;-58
2022/12/27 14:53:08;;;;;;;0.80;0.68;;;;;;;;;;5093967;28;20225;-58
2022/12/27 14:55:48;;;;;;;0.63;0.52;;;;;;;;;;5092170;28;20199;-58
2022/12/27 14:58:25;;;;;;;0.73;0.50;;;;;;;;;;5092627;28;20352;-58
2022/12/27 15:01:03;;;;;;;0.73;0.57;;;;;;;;;;5091201;28;20195;-59
2022/12/27 15:03:39;;;;;;;0.77;0.63;;;;;;;;;;5091651;28;20199;-58
2022/12/27 15:06:11;;;;;;;0.47;0.47;;;;;;;;;;5090861;28;20198;-59
2022/12/27 15:08:46;;;;;;;0.43;0.40;;;;;;;;;;5092482;28;20558;-59
2022/12/27 15:11:27;;;;;;;0.60;0.52;;;;;;;;;;5092525;28;20222;-58
2022/12/27 15:14:03;;;;;;;0.68;0.57;;;;;;;;;;5092507;28;20495;-58
2022/12/27 15:16:36;;;;;;;1.00;0.90;;;;;;;;;;5091172;28;20233;-59
2022/12/27 15:19:16;;;;;;;0.70;0.70;;;;;;;;;;5091680;28;20557;-59
2022/12/27 15:21:48;;;;;;;0.80;0.60;;;;;;;;;;5091388;28;20207;-59
2022/12/27 15:24:23;;;;;;;0.50;0.50;;;;;;;;;;5090797;28;20440;-59
2022/12/27 15:26:53;;;;;;;0.90;0.60;;;;;;;;;;5090730;28;20579;-59
2022/12/27 15:29:28;;;;;;;0.70;0.60;;;;;;;;;;5090556;28;20595;-59
2022/12/27 15:32:01;;;;;;;1.38;0.70;;;;;;;;;;5092628;28;20484;-58
2022/12/27 15:34:44;;;;;;;0.63;0.60;;;;;;;;;;5092149;28;20217;-58
2022/12/27 15:37:26;;;;;;;0.60;0.60;;;;;;;;;;5087972;28;20223;-58
2022/12/27 15:39:55;;;;;;;0.82;0.63;;;;;;;;;;5090400;28;20196;-58
2022/12/27 15:42:40;;;;;;;0.63;0.63;;;;;;;;;;5091649;28;20262;-58
2022/12/27 15:45:13;;;;;;;0.82;0.70;;;;;;;;;;5091851;28;20231;-58
2022/12/27 15:47:48;;;;;;;0.85;0.60;;;;;;;;;;5092861;28;20448;-58
2022/12/27 15:50:19;;;;;;;0.60;0.60;;;;;;;;;;5092599;28;20323;-59
2022/12/27 15:52:59;;;;;;;0.57;0.57;;;;;;;;;;5092486;28;20436;-59
2022/12/27 15:55:37;;;;;;;1.02;0.60;;;;;;;;;;5091746;28;20243;-58
2022/12/27 15:58:13;;;;;;;0.60;0.60;;;;;;;;;;5091702;28;20448;-58
2022/12/27 16:00:41;;;;;;;0.73;0.70;;;;;;;;;;5090995;28;20246;-59
2022/12/27 16:03:24;;;;;;;0.80;0.70;;;;;;;;;;5091378;28;20594;-58
2022/12/27 16:05:52;;;;;;;7.93;7.22;;;;;;;;;;5091366;28;20205;-58
2022/12/27 16:08:25;;;;;;;13.50;12.40;;;;;;;;;;5091763;28;20200;-58
2022/12/27 16:10:55;;;;;;;11.55;10.55;;;;;;;;;;5091676;28;20447;-58
2022/12/27 16:13:27;;;;;;;11.27;10.38;;;;;;;;;;5094058;28;20598;-58
2022/12/27 16:15:55;;;;;;;10.60;9.63;;;;;;;;;;5096752;28;20196;-58
2022/12/27 16:18:50;;;;;;;9.88;9.07;;;;;;;;;;5095442;28;20223;-58
2022/12/27 16:21:20;;;;;;;10.75;9.85;;;;;;;;;;5037587;28;20205;-58
2022/12/27 16:23:52;;;;;;;12.05;11.05;;;;;;;;;;5095742;28;20206;-59
2022/12/27 16:26:22;;;;;;;51.92;48.33;;;;;;;;;;5095467;28;20294;-58
2022/12/27 16:28:54;;;;;;;46.92;43.65;;;;;;;;;;5095322;28;20294;-59
2022/12/27 16:31:23;;;;;;;44.67;41.58;;;;;;;;;;5096233;28;20200;-59
2022/12/27 16:33:51;;;;;;;42.22;39.33;;;;;;;;;;5096174;28;20187;-58
2022/12/27 16:36:23;;;;;;;41.30;38.55;;;;;;;;;;5096123;28;20291;-58
2022/12/27 16:39:00;;;;;;;40.10;37.40;;;;;;;;;;5095638;28;20631;-58
2022/12/27 16:41:38;;;;;;;39.83;37.22;;;;;;;;;;5095404;28;20342;-58
2022/12/27 16:44:14;;;;;;;38.20;35.55;;;;;;;;;;5094741;28;20318;-58
2022/12/27 16:46:49;;;;;;;36.72;34.22;;;;;;;;;;5095967;28;20290;-58
2022/12/27 16:49:34;;;;;;;36.15;33.75;;;;;;;;;;5096478;28;20203;-58